sensor_id;sensor_type;location;lat;lon;timestamp;pressure;altitude;pressure_sealevel;temperature;humidity
23589;BME280;11972;48.078;11.876;2023-08-06T00:03:47;93077.41;;;14.33;100.00
23589;BME280;11972;48.078;11.876;2023-08-06T00:07:48;93070.53;;;14.32;100.00
23589;BME280;11972;48.078;11.876;2023-08-06T00:11:48;93075.03;;;14.32;100.00
23589;BME280;11972;48.078;11.876;2023-08-06T00:15:49;93051.91;;;14.27;100.00
23589;BME280;11972;48.078;11.876;2023-08-06T00:19:49;93044.50;;;14.24;100.00
23589;BME280;11972;48.078;11.876;2023-08-06T00:23:49;93060.44;;;14.29;100.00
23589;BME280;11972;48.078;11.876;2023-08-06T00:27:50;93054.31;;;14.29;100.00
23589;BME280;11972;48.078;11.876;2023-08-06T00:31:50;93063.09;;;14.29;100.00
23589;BME280;11972;48.078;11.876;2023-08-06T00:35:51;93072.63;;;14.30;100.00
23589;BME280;11972;48.078;11.876;2023-08-06T00:39:51;93081.66;;;14.34;100.00
23589;BME280;11972;48.078;11.876;2023-08-06T00:43:51;93078.50;;;14.32;100.00
23589;BME280;11972;48.078;11.876;2023-08-06T00:47:52;93065.75;;;14.29;100.00
23589;BME280;11972;48.078;11.876;2023-08-06T00:51:52;93050.84;;;14.23;100.00
23589;BME280;11972;48.078;11.876;2023-08-06T00:55:53;93004.66;;;14.14;100.00
23589;BME280;11972;48.078;11.876;2023-08-06T00:59:53;92952.91;;;14.01;100.00
23589;BME280;11972;48.078;11.876;2023-08-06T01:03:54;92919.75;;;13.94;100.00
23589;BME280;11972;48.078;11.876;2023-08-06T01:08:22;92920.28;;;13.90;100.00
23589;BME280;11972;48.078;11.876;2023-08-06T01:12:43;92923.47;;;13.93;100.00
23589;BME280;11972;48.078;11.876;2023-08-06T01:16:45;92909.66;;;13.90;100.00
23589;BME280;11972;48.078;11.876;2023-08-06T01:20:46;92903.28;;;13.86;100.00
23589;BME280;11972;48.078;11.876;2023-08-06T01:24:49;92896.41;;;13.85;100.00
23589;BME280;11972;48.078;11.876;2023-08-06T01:33:04;92873.59;;;13.79;100.00
23589;BME280;11972;48.078;11.876;2023-08-06T01:37:06;92844.97;;;13.71;100.00
23589;BME280;11972;48.078;11.876;2023-08-06T01:41:07;92816.84;;;13.65;100.00
23589;BME280;11972;48.078;11.876;2023-08-06T01:45:08;92794.84;;;13.59;100.00
23589;BME280;11972;48.078;11.876;2023-08-06T01:49:09;92770.19;;;13.54;100.00
23589;BME280;11972;48.078;11.876;2023-08-06T01:53:09;92762.78;;;13.51;100.00
23589;BME280;11972;48.078;11.876;2023-08-06T01:57:09;92754.28;;;13.49;100.00
23589;BME280;11972;48.078;11.876;2023-08-06T02:01:10;92743.16;;;13.47;100.00
23589;BME280;11972;48.078;11.876;2023-08-06T02:05:10;92733.63;;;13.46;100.00
23589;BME280;11972;48.078;11.876;2023-08-06T02:09:10;92731.50;;;13.43;100.00
23589;BME280;11972;48.078;11.876;2023-08-06T02:13:11;92730.16;;;13.40;100.00
23589;BME280;11972;48.078;11.876;2023-08-06T02:17:11;92719.56;;;13.40;100.00
23589;BME280;11972;48.078;11.876;2023-08-06T02:21:11;92724.88;;;13.40;100.00
23589;BME280;11972;48.078;11.876;2023-08-06T02:25:12;92694.13;;;13.34;100.00
23589;BME280;11972;48.078;11.876;2023-08-06T02:29:12;92682.72;;;13.28;100.00
23589;BME280;11972;48.078;11.876;2023-08-06T02:33:12;92656.25;;;13.23;100.00
23589;BME280;11972;48.078;11.876;2023-08-06T02:37:12;92647.22;;;13.19;100.00
23589;BME280;11972;48.078;11.876;2023-08-06T02:41:13;92623.09;;;13.15;100.00
23589;BME280;11972;48.078;11.876;2023-08-06T02:45:13;92620.72;;;13.14;100.00
23589;BME280;11972;48.078;11.876;2023-08-06T02:49:13;92606.16;;;13.11;100.00
23589;BME280;11972;48.078;11.876;2023-08-06T02:53:14;92600.59;;;13.08;100.00
23589;BME280;11972;48.078;11.876;2023-08-06T02:57:14;92591.06;;;13.07;100.00
23589;BME280;11972;48.078;11.876;2023-08-06T03:01:14;92582.06;;;13.03;100.00
23589;BME280;11972;48.078;11.876;2023-08-06T03:05:15;92579.41;;;13.03;100.00
23589;BME280;11972;48.078;11.876;2023-08-06T03:09:15;92568.31;;;13.01;100.00
23589;BME280;11972;48.078;11.876;2023-08-06T03:13:19;92573.59;;;13.01;100.00
23589;BME280;11972;48.078;11.876;2023-08-06T03:17:20;92582.84;;;13.03;100.00
23589;BME280;11972;48.078;11.876;2023-08-06T03:21:20;92572.00;;;13.00;100.00
23589;BME280;11972;48.078;11.876;2023-08-06T03:25:20;92543.94;;;12.94;100.00
23589;BME280;11972;48.078;11.876;2023-08-06T03:29:21;92490.47;;;12.81;100.00
23589;BME280;11972;48.078;11.876;2023-08-06T03:33:22;92453.41;;;12.71;100.00
23589;BME280;11972;48.078;11.876;2023-08-06T03:37:22;92429.91;;;12.64;100.00
23589;BME280;11972;48.078;11.876;2023-08-06T03:41:23;92406.34;;;12.58;100.00
23589;BME280;11972;48.078;11.876;2023-08-06T03:45:23;92381.47;;;12.54;100.00
23589;BME280;11972;48.078;11.876;2023-08-06T03:49:23;92360.31;;;12.49;100.00
23589;BME280;11972;48.078;11.876;2023-08-06T03:53:24;92350.56;;;12.44;100.00
23589;BME280;11972;48.078;11.876;2023-08-06T03:57:24;92333.91;;;12.38;100.00
23589;BME280;11972;48.078;11.876;2023-08-06T04:01:24;92314.59;;;12.33;100.00
23589;BME280;11972;48.078;11.876;2023-08-06T04:05:24;92294.25;;;12.28;100.00
23589;BME280;11972;48.078;11.876;2023-08-06T04:09:25;92279.97;;;12.24;100.00
23589;BME280;11972;48.078;11.876;2023-08-06T04:13:25;92267.28;;;12.21;100.00
23589;BME280;11972;48.078;11.876;2023-08-06T04:17:25;92252.75;;;12.19;100.00
23589;BME280;11972;48.078;11.876;2023-08-06T04:21:26;92253.81;;;12.17;100.00
23589;BME280;11972;48.078;11.876;2023-08-06T04:25:26;92253.00;;;12.17;100.00
23589;BME280;11972;48.078;11.876;2023-08-06T04:29:26;92251.44;;;12.16;100.00
23589;BME280;11972;48.078;11.876;2023-08-06T04:33:27;92243.50;;;12.16;100.00
23589;BME280;11972;48.078;11.876;2023-08-06T04:37:27;92244.56;;;12.15;100.00
23589;BME280;11972;48.078;11.876;2023-08-06T04:41:27;92250.38;;;12.17;100.00
23589;BME280;11972;48.078;11.876;2023-08-06T04:45:28;92284.47;;;12.24;100.00
23589;BME280;11972;48.078;11.876;2023-08-06T04:49:28;92304.53;;;12.30;100.00
23589;BME280;11972;48.078;11.876;2023-08-06T04:53:28;92361.13;;;12.44;100.00
23589;BME280;11972;48.078;11.876;2023-08-06T04:57:29;92427.28;;;12.59;100.00
23589;BME280;11972;48.078;11.876;2023-08-06T05:01:29;92513.53;;;12.81;100.00
23589;BME280;11972;48.078;11.876;2023-08-06T05:05:30;92613.31;;;13.06;100.00
23589;BME280;11972;48.078;11.876;2023-08-06T05:09:30;92745.28;;;13.39;100.00
23589;BME280;11972;48.078;11.876;2023-08-06T05:13:30;92872.56;;;13.70;100.00
23589;BME280;11972;48.078;11.876;2023-08-06T05:17:30;92924.28;;;13.83;100.00
23589;BME280;11972;48.078;11.876;2023-08-06T05:21:31;92970.94;;;13.94;100.00
23589;BME280;11972;48.078;11.876;2023-08-06T05:25:31;93028.56;;;14.09;100.00
23589;BME280;11972;48.078;11.876;2023-08-06T05:29:32;93060.16;;;14.15;100.00
23589;BME280;11972;48.078;11.876;2023-08-06T05:33:32;93093.31;;;14.23;100.00
23589;BME280;11972;48.078;11.876;2023-08-06T05:37:33;93055.88;;;14.14;100.00
23589;BME280;11972;48.078;11.876;2023-08-06T05:41:33;93008.38;;;14.03;100.00
23589;BME280;11972;48.078;11.876;2023-08-06T05:45:33;92982.34;;;13.95;100.00
23589;BME280;11972;48.078;11.876;2023-08-06T05:49:34;92992.44;;;13.98;100.00
23589;BME280;11972;48.078;11.876;2023-08-06T05:53:34;93013.69;;;14.03;100.00
23589;BME280;11972;48.078;11.876;2023-08-06T05:57:34;93050.06;;;14.12;100.00
23589;BME280;11972;48.078;11.876;2023-08-06T06:01:35;93070.50;;;14.17;100.00
23589;BME280;11972;48.078;11.876;2023-08-06T06:05:37;93035.44;;;14.10;100.00
23589;BME280;11972;48.078;11.876;2023-08-06T06:09:38;92973.88;;;13.93;100.00
23589;BME280;11972;48.078;11.876;2023-08-06T06:13:39;92930.38;;;13.83;100.00
23589;BME280;11972;48.078;11.876;2023-08-06T06:17:39;92913.41;;;13.79;100.00
23589;BME280;11972;48.078;11.876;2023-08-06T06:21:40;92911.78;;;13.78;100.00
23589;BME280;11972;48.078;11.876;2023-08-06T06:25:47;92937.25;;;13.84;100.00
23589;BME280;11972;48.078;11.876;2023-08-06T06:29:48;92979.19;;;13.93;100.00
23589;BME280;11972;48.078;11.876;2023-08-06T06:33:48;93022.97;;;14.05;100.00
23589;BME280;11972;48.078;11.876;2023-08-06T06:37:48;93073.94;;;14.18;100.00
23589;BME280;11972;48.078;11.876;2023-08-06T06:41:49;93110.31;;;14.27;100.00
23589;BME280;11972;48.078;11.876;2023-08-06T06:45:53;93199.34;;;14.50;100.00
23589;BME280;11972;48.078;11.876;2023-08-06T06:49:54;93426.19;;;15.07;100.00
23589;BME280;11972;48.078;11.876;2023-08-06T06:53:54;93635.16;;;15.55;100.00
23589;BME280;11972;48.078;11.876;2023-08-06T06:57:54;93792.16;;;15.93;100.00
23589;BME280;11972;48.078;11.876;2023-08-06T07:01:55;93984.22;;;16.38;100.00
23589;BME280;11972;48.078;11.876;2023-08-06T07:05:58;94180.78;;;16.85;100.00
23589;BME280;11972;48.078;11.876;2023-08-06T07:09:59;94272.22;;;17.08;100.00
23589;BME280;11972;48.078;11.876;2023-08-06T07:13:59;94339.03;;;17.23;100.00
23589;BME280;11972;48.078;11.876;2023-08-06T07:18:00;94346.53;;;17.26;100.00
23589;BME280;11972;48.078;11.876;2023-08-06T07:22:01;94374.91;;;17.32;100.00
23589;BME280;11972;48.078;11.876;2023-08-06T07:26:01;94294.41;;;17.14;100.00
23589;BME280;11972;48.078;11.876;2023-08-06T07:30:02;94334.50;;;17.24;100.00
23589;BME280;11972;48.078;11.876;2023-08-06T07:34:02;94470.94;;;17.54;100.00
23589;BME280;11972;48.078;11.876;2023-08-06T07:38:03;94628.69;;;17.92;100.00
23589;BME280;11972;48.078;11.876;2023-08-06T07:42:03;94549.66;;;17.74;100.00
23589;BME280;11972;48.078;11.876;2023-08-06T07:46:05;94407.28;;;17.41;100.00
23589;BME280;11972;48.078;11.876;2023-08-06T07:50:06;94184.81;;;16.88;100.00
23589;BME280;11972;48.078;11.876;2023-08-06T07:54:07;94248.94;;;17.03;100.00
23589;BME280;11972;48.078;11.876;2023-08-06T07:58:07;94294.41;;;17.14;100.00
23589;BME280;11972;48.078;11.876;2023-08-06T08:02:08;94278.88;;;17.10;100.00
23589;BME280;11972;48.078;11.876;2023-08-06T08:06:08;94247.09;;;17.04;100.00
23589;BME280;11972;48.078;11.876;2023-08-06T08:10:08;94316.59;;;17.19;100.00
23589;BME280;11972;48.078;11.876;2023-08-06T08:14:09;94331.03;;;17.23;100.00
23589;BME280;11972;48.078;11.876;2023-08-06T08:18:09;94342.81;;;17.27;100.00
23589;BME280;11972;48.078;11.876;2023-08-06T08:22:09;94368.50;;;17.33;100.00
23589;BME280;11972;48.078;11.876;2023-08-06T08:26:10;94361.56;;;17.32;100.00
23589;BME280;11972;48.078;11.876;2023-08-06T08:30:10;94424.72;;;17.49;100.00
23589;BME280;11972;48.078;11.876;2023-08-06T08:34:10;94524.25;;;17.71;100.00
23589;BME280;11972;48.078;11.876;2023-08-06T08:38:11;94586.69;;;17.87;100.00
23589;BME280;11972;48.078;11.876;2023-08-06T08:42:12;94760.84;;;18.28;100.00
23589;BME280;11972;48.078;11.876;2023-08-06T08:46:13;95043.63;;;18.93;100.00
23589;BME280;11972;48.078;11.876;2023-08-06T08:50:14;95261.50;;;19.43;100.00
23589;BME280;11972;48.078;11.876;2023-08-06T08:54:15;95269.59;;;19.48;100.00
23589;BME280;11972;48.078;11.876;2023-08-06T08:58:16;95216.38;;;19.34;100.00
23589;BME280;11972;48.078;11.876;2023-08-06T09:02:18;94947.84;;;18.73;100.00
23589;BME280;11972;48.078;11.876;2023-08-06T09:06:21;94763.25;;;18.29;100.00
23589;BME280;11972;48.078;11.876;2023-08-06T09:10:22;94731.63;;;18.21;100.00
23589;BME280;11972;48.078;11.876;2023-08-06T09:14:24;94683.97;;;18.13;100.00
23589;BME280;11972;48.078;11.876;2023-08-06T09:18:26;94498.84;;;17.69;100.00
23589;BME280;11972;48.078;11.876;2023-08-06T09:22:34;94626.63;;;17.99;100.00
23589;BME280;11972;48.078;11.876;2023-08-06T09:26:36;94695.22;;;18.15;100.00
23589;BME280;11972;48.078;11.876;2023-08-06T09:30:37;94762.50;;;18.34;100.00
23589;BME280;11972;48.078;11.876;2023-08-06T09:34:39;94847.53;;;18.54;100.00
23589;BME280;11972;48.078;11.876;2023-08-06T09:38:40;94363.22;;;17.39;100.00
23589;BME280;11972;48.078;11.876;2023-08-06T09:42:42;94264.78;;;17.15;100.00
23589;BME280;11972;48.078;11.876;2023-08-06T09:46:54;94342.34;;;17.35;100.00
23589;BME280;11972;48.078;11.876;2023-08-06T09:50:54;94483.63;;;17.69;100.00
23589;BME280;11972;48.078;11.876;2023-08-06T09:54:55;94445.66;;;17.62;100.00
23589;BME280;11972;48.078;11.876;2023-08-06T09:58:57;94402.03;;;17.51;100.00
23589;BME280;11972;48.078;11.876;2023-08-06T10:03:00;94484.47;;;17.70;100.00
23589;BME280;11972;48.078;11.876;2023-08-06T10:07:01;94666.31;;;18.12;100.00
23589;BME280;11972;48.078;11.876;2023-08-06T10:11:02;94888.34;;;18.66;100.00
23589;BME280;11972;48.078;11.876;2023-08-06T10:15:08;94919.47;;;18.72;100.00
23589;BME280;11972;48.078;11.876;2023-08-06T10:19:11;94680.78;;;18.16;100.00
23589;BME280;11972;48.078;11.876;2023-08-06T10:23:12;94521.97;;;17.80;100.00
23589;BME280;11972;48.078;11.876;2023-08-06T10:27:19;94300.69;;;17.29;100.00
23589;BME280;11972;48.078;11.876;2023-08-06T10:31:52;94133.09;;;16.89;100.00
23589;BME280;11972;48.078;11.876;2023-08-06T10:35:48;94078.59;;;16.75;100.00
23589;BME280;11972;48.078;11.876;2023-08-06T10:39:52;94137.34;;;16.90;100.00
23589;BME280;11972;48.078;11.876;2023-08-06T10:44:05;94184.38;;;17.01;100.00
23589;BME280;11972;48.078;11.876;2023-08-06T10:48:07;94282.50;;;17.26;100.00
23589;BME280;11972;48.078;11.876;2023-08-06T10:52:07;94394.59;;;17.53;100.00
23589;BME280;11972;48.078;11.876;2023-08-06T10:56:20;94350.97;;;17.43;100.00
23589;BME280;11972;48.078;11.876;2023-08-06T11:00:22;94249.38;;;17.22;100.00
23589;BME280;11972;48.078;11.876;2023-08-06T11:04:24;94322.38;;;17.38;100.00
23589;BME280;11972;48.078;11.876;2023-08-06T11:08:29;94206.31;;;17.08;100.00
23589;BME280;11972;48.078;11.876;2023-08-06T11:12:30;94102.94;;;16.83;100.00
23589;BME280;11972;48.078;11.876;2023-08-06T11:16:31;94172.41;;;17.04;100.00
23589;BME280;11972;48.078;11.876;2023-08-06T11:20:31;94355.00;;;17.45;100.00
23589;BME280;11972;48.078;11.876;2023-08-06T11:24:31;94441.16;;;17.68;100.00
23589;BME280;11972;48.078;11.876;2023-08-06T11:28:32;94591.94;;;18.04;100.00
23589;BME280;11972;48.078;11.876;2023-08-06T11:32:32;94590.34;;;18.03;100.00
23589;BME280;11972;48.078;11.876;2023-08-06T11:36:36;94648.72;;;18.16;100.00
23589;BME280;11972;48.078;11.876;2023-08-06T11:40:36;94439.28;;;17.68;100.00
23589;BME280;11972;48.078;11.876;2023-08-06T11:44:37;94219.44;;;17.15;100.00
23589;BME280;11972;48.078;11.876;2023-08-06T11:48:53;94116.59;;;16.92;100.00
23589;BME280;11972;48.078;11.876;2023-08-06T11:52:59;94283.09;;;17.33;100.00
23589;BME280;11972;48.078;11.876;2023-08-06T11:57:00;94507.84;;;17.84;100.00
23589;BME280;11972;48.078;11.876;2023-08-06T12:01:02;94378.88;;;17.57;100.00
23589;BME280;11972;48.078;11.876;2023-08-06T12:05:13;94279.88;;;17.31;100.00
23589;BME280;11972;48.078;11.876;2023-08-06T12:09:14;94228.03;;;17.22;100.00
23589;BME280;11972;48.078;11.876;2023-08-06T12:13:14;94438.81;;;17.71;100.00
23589;BME280;11972;48.078;11.876;2023-08-06T12:17:14;94551.81;;;17.99;100.00
23589;BME280;11972;48.078;11.876;2023-08-06T12:21:15;94550.19;;;17.98;100.00
23589;BME280;11972;48.078;11.876;2023-08-06T12:25:15;94395.16;;;17.60;100.00
23589;BME280;11972;48.078;11.876;2023-08-06T12:29:15;94227.25;;;17.22;100.00
23589;BME280;11972;48.078;11.876;2023-08-06T12:33:16;94087.75;;;16.89;100.00
23589;BME280;11972;48.078;11.876;2023-08-06T12:37:16;94273.22;;;17.34;100.00
23589;BME280;11972;48.078;11.876;2023-08-06T12:41:16;94396.53;;;17.63;100.00
23589;BME280;11972;48.078;11.876;2023-08-06T12:45:17;94346.78;;;17.52;100.00
23589;BME280;11972;48.078;11.876;2023-08-06T12:49:18;94275.63;;;17.35;100.00
23589;BME280;11972;48.078;11.876;2023-08-06T12:53:18;94334.75;;;17.49;100.00
23589;BME280;11972;48.078;11.876;2023-08-06T12:57:21;94361.00;;;17.57;100.00
23589;BME280;11972;48.078;11.876;2023-08-06T13:01:21;94370.34;;;17.60;100.00
23589;BME280;11972;48.078;11.876;2023-08-06T13:05:21;94206.16;;;17.20;100.00
23589;BME280;11972;48.078;11.876;2023-08-06T13:09:23;93794.97;;;16.23;100.00
23589;BME280;11972;48.078;11.876;2023-08-06T13:13:24;93493.31;;;15.50;100.00
23589;BME280;11972;48.078;11.876;2023-08-06T13:17:27;93387.16;;;15.23;100.00
23589;BME280;11972;48.078;11.876;2023-08-06T13:21:36;93399.66;;;15.27;100.00
23589;BME280;11972;48.078;11.876;2023-08-06T13:25:51;93483.75;;;15.49;100.00
23589;BME280;11972;48.078;11.876;2023-08-06T13:29:52;93534.88;;;15.61;100.00
23589;BME280;11972;48.078;11.876;2023-08-06T13:33:54;93574.31;;;15.69;100.00
23589;BME280;11972;48.078;11.876;2023-08-06T13:37:55;93757.38;;;16.15;100.00
23589;BME280;11972;48.078;11.876;2023-08-06T13:41:56;94156.97;;;17.11;100.00
23589;BME280;11972;48.078;11.876;2023-08-06T13:45:56;94501.56;;;17.96;100.00
23589;BME280;11972;48.078;11.876;2023-08-06T13:49:56;94145.78;;;17.09;100.00
23589;BME280;11972;48.078;11.876;2023-08-06T13:53:56;93643.03;;;15.87;100.00
23589;BME280;11972;48.078;11.876;2023-08-06T13:57:57;93431.06;;;15.35;100.00
23589;BME280;11972;48.078;11.876;2023-08-06T14:01:58;93500.00;;;15.52;100.00
23589;BME280;11972;48.078;11.876;2023-08-06T14:05:59;93632.66;;;15.86;100.00
23589;BME280;11972;48.078;11.876;2023-08-06T14:10:00;93708.34;;;16.05;100.00
23589;BME280;11972;48.078;11.876;2023-08-06T14:14:00;93687.28;;;15.99;100.00
23589;BME280;11972;48.078;11.876;2023-08-06T14:18:01;93562.59;;;15.70;100.00
23589;BME280;11972;48.078;11.876;2023-08-06T14:22:01;93422.28;;;15.35;100.00
23589;BME280;11972;48.078;11.876;2023-08-06T14:26:02;93241.13;;;14.91;100.00
23589;BME280;11972;48.078;11.876;2023-08-06T14:30:02;93059.38;;;14.46;100.00
23589;BME280;11972;48.078;11.876;2023-08-06T14:34:03;93198.59;;;14.80;100.00
23589;BME280;11972;48.078;11.876;2023-08-06T14:38:03;93368.53;;;15.23;100.00
23589;BME280;11972;48.078;11.876;2023-08-06T14:42:04;93369.31;;;15.23;100.00
23589;BME280;11972;48.078;11.876;2023-08-06T14:46:04;93383.69;;;15.27;100.00
23589;BME280;11972;48.078;11.876;2023-08-06T14:50:05;93461.91;;;15.47;100.00
23589;BME280;11972;48.078;11.876;2023-08-06T14:54:05;93349.66;;;15.19;100.00
23589;BME280;11972;48.078;11.876;2023-08-06T14:58:05;93254.44;;;14.96;100.00
23589;BME280;11972;48.078;11.876;2023-08-06T15:02:06;93177.06;;;14.77;100.00
23589;BME280;11972;48.078;11.876;2023-08-06T15:06:06;92959.00;;;14.22;100.00
23589;BME280;11972;48.078;11.876;2023-08-06T15:10:08;92886.28;;;14.03;100.00
23589;BME280;11972;48.078;11.876;2023-08-06T15:14:08;92798.25;;;13.80;100.00
23589;BME280;11972;48.078;11.876;2023-08-06T15:18:08;92689.59;;;13.55;100.00
23589;BME280;11972;48.078;11.876;2023-08-06T15:22:09;92655.91;;;13.45;100.00
23589;BME280;11972;48.078;11.876;2023-08-06T15:26:12;92699.66;;;13.58;100.00
23589;BME280;11972;48.078;11.876;2023-08-06T15:30:12;92819.22;;;13.87;100.00
23589;BME280;11972;48.078;11.876;2023-08-06T15:34:13;92783.66;;;13.78;100.00
23589;BME280;11972;48.078;11.876;2023-08-06T15:38:14;92797.19;;;13.81;100.00
23589;BME280;11972;48.078;11.876;2023-08-06T15:42:14;92668.41;;;13.50;100.00
23589;BME280;11972;48.078;11.876;2023-08-06T15:46:15;92580.72;;;13.26;100.00
23589;BME280;11972;48.078;11.876;2023-08-06T15:50:16;92531.72;;;13.13;100.00
23589;BME280;11972;48.078;11.876;2023-08-06T15:54:16;92464.19;;;12.95;100.00
23589;BME280;11972;48.078;11.876;2023-08-06T15:58:16;92411.03;;;12.81;100.00
23589;BME280;11972;48.078;11.876;2023-08-06T16:02:17;92364.47;;;12.70;100.00
23589;BME280;11972;48.078;11.876;2023-08-06T16:06:17;92345.69;;;12.66;100.00
23589;BME280;11972;48.078;11.876;2023-08-06T16:10:17;92338.03;;;12.65;100.00
23589;BME280;11972;48.078;11.876;2023-08-06T16:14:18;92303.13;;;12.53;100.00
23589;BME280;11972;48.078;11.876;2023-08-06T16:18:19;92253.97;;;12.41;100.00
23589;BME280;11972;48.078;11.876;2023-08-06T16:22:19;92251.31;;;12.41;100.00
23589;BME280;11972;48.078;11.876;2023-08-06T16:26:20;92257.13;;;12.44;100.00
23589;BME280;11972;48.078;11.876;2023-08-06T16:30:20;92286.72;;;12.51;100.00
23589;BME280;11972;48.078;11.876;2023-08-06T16:34:21;92260.81;;;12.42;100.00
23589;BME280;11972;48.078;11.876;2023-08-06T16:38:21;92213.53;;;12.31;100.00
23589;BME280;11972;48.078;11.876;2023-08-06T16:42:22;92208.50;;;12.29;100.00
23589;BME280;11972;48.078;11.876;2023-08-06T16:46:22;92176.28;;;12.22;100.00
23589;BME280;11972;48.078;11.876;2023-08-06T16:50:25;92163.06;;;12.17;100.00
23589;BME280;11972;48.078;11.876;2023-08-06T16:54:28;92160.72;;;12.15;100.00
23589;BME280;11972;48.078;11.876;2023-08-06T16:58:32;92139.59;;;12.10;100.00
23589;BME280;11972;48.078;11.876;2023-08-06T17:02:32;92134.56;;;12.09;100.00
23589;BME280;11972;48.078;11.876;2023-08-06T17:06:32;92104.47;;;12.00;100.00
23589;BME280;11972;48.078;11.876;2023-08-06T17:10:33;92100.75;;;12.01;100.00
23589;BME280;11972;48.078;11.876;2023-08-06T17:14:33;92151.47;;;12.13;100.00
23589;BME280;11972;48.078;11.876;2023-08-06T17:18:34;92165.22;;;12.15;100.00
23589;BME280;11972;48.078;11.876;2023-08-06T17:22:34;92219.88;;;12.30;100.00
23589;BME280;11972;48.078;11.876;2023-08-06T17:26:34;92221.50;;;12.31;100.00
23589;BME280;11972;48.078;11.876;2023-08-06T17:30:35;92221.75;;;12.29;100.00
23589;BME280;11972;48.078;11.876;2023-08-06T17:34:35;92236.00;;;12.33;100.00
23589;BME280;11972;48.078;11.876;2023-08-06T17:38:35;92287.81;;;12.45;100.00
23589;BME280;11972;48.078;11.876;2023-08-06T17:42:36;92237.88;;;12.33;100.00
23589;BME280;11972;48.078;11.876;2023-08-06T17:46:36;92172.09;;;12.16;100.00
23589;BME280;11972;48.078;11.876;2023-08-06T17:50:37;92184.25;;;12.17;100.00
23589;BME280;11972;48.078;11.876;2023-08-06T17:54:37;92195.84;;;12.21;100.00
23589;BME280;11972;48.078;11.876;2023-08-06T17:58:37;92099.72;;;11.97;100.00
23589;BME280;11972;48.078;11.876;2023-08-06T18:02:38;92062.00;;;11.86;100.00
23589;BME280;11972;48.078;11.876;2023-08-06T18:06:38;92102.34;;;11.97;100.00
23589;BME280;11972;48.078;11.876;2023-08-06T18:10:39;92024.22;;;11.75;100.00
23589;BME280;11972;48.078;11.876;2023-08-06T18:14:39;91925.81;;;11.49;100.00
23589;BME280;11972;48.078;11.876;2023-08-06T18:18:39;91869.66;;;11.33;100.00
23589;BME280;11972;48.078;11.876;2023-08-06T18:22:40;91817.44;;;11.20;100.00
23589;BME280;11972;48.078;11.876;2023-08-06T18:26:40;91812.44;;;11.18;100.00
23589;BME280;11972;48.078;11.876;2023-08-06T18:30:41;91831.69;;;11.24;100.00
23589;BME280;11972;48.078;11.876;2023-08-06T18:34:41;91846.69;;;11.29;100.00
23589;BME280;11972;48.078;11.876;2023-08-06T18:38:41;91879.66;;;11.36;100.00
23589;BME280;11972;48.078;11.876;2023-08-06T18:42:43;91900.75;;;11.41;100.00
23589;BME280;11972;48.078;11.876;2023-08-06T18:46:43;91920.78;;;11.48;100.00
23589;BME280;11972;48.078;11.876;2023-08-06T18:50:44;91930.31;;;11.49;100.00
23589;BME280;11972;48.078;11.876;2023-08-06T18:54:44;91937.16;;;11.50;100.00
23589;BME280;11972;48.078;11.876;2023-08-06T18:58:48;91937.16;;;11.50;100.00
23589;BME280;11972;48.078;11.876;2023-08-06T19:02:48;91940.31;;;11.52;100.00
23589;BME280;11972;48.078;11.876;2023-08-06T19:07:00;91941.38;;;11.51;100.00
23589;BME280;11972;48.078;11.876;2023-08-06T19:11:01;91933.22;;;11.47;100.00
23589;BME280;11972;48.078;11.876;2023-08-06T19:15:02;91915.53;;;11.42;100.00
23589;BME280;11972;48.078;11.876;2023-08-06T19:19:02;91887.84;;;11.35;100.00
23589;BME280;11972;48.078;11.876;2023-08-06T19:23:03;91828.00;;;11.20;100.00
23589;BME280;11972;48.078;11.876;2023-08-06T19:27:03;91785.81;;;11.10;100.00
23589;BME280;11972;48.078;11.876;2023-08-06T19:31:04;91763.44;;;11.02;100.00
23589;BME280;11972;48.078;11.876;2023-08-06T19:35:05;91755.81;;;11.01;100.00
23589;BME280;11972;48.078;11.876;2023-08-06T19:39:06;91757.66;;;11.00;100.00
23589;BME280;11972;48.078;11.876;2023-08-06T19:43:06;91763.72;;;11.01;100.00
23589;BME280;11972;48.078;11.876;2023-08-06T19:47:06;91761.88;;;11.01;100.00
23589;BME280;11972;48.078;11.876;2023-08-06T19:51:07;91775.84;;;11.07;100.00
23589;BME280;11972;48.078;11.876;2023-08-06T19:55:07;91800.34;;;11.12;100.00
23589;BME280;11972;48.078;11.876;2023-08-06T19:59:08;91890.00;;;11.33;100.00
23589;BME280;11972;48.078;11.876;2023-08-06T20:03:08;92012.09;;;11.64;100.00
23589;BME280;11972;48.078;11.876;2023-08-06T20:07:09;92056.47;;;11.77;100.00
23589;BME280;11972;48.078;11.876;2023-08-06T20:11:10;92079.19;;;11.83;100.00
23589;BME280;11972;48.078;11.876;2023-08-06T20:15:10;92092.09;;;11.85;100.00
23589;BME280;11972;48.078;11.876;2023-08-06T20:19:11;92083.69;;;11.83;100.00
23589;BME280;11972;48.078;11.876;2023-08-06T20:23:11;92070.97;;;11.80;100.00
23589;BME280;11972;48.078;11.876;2023-08-06T20:27:11;92045.88;;;11.72;100.00
23589;BME280;11972;48.078;11.876;2023-08-06T20:31:12;92035.88;;;11.69;100.00
23589;BME280;11972;48.078;11.876;2023-08-06T20:35:12;91995.22;;;11.60;100.00
23589;BME280;11972;48.078;11.876;2023-08-06T20:39:12;91985.22;;;11.57;100.00
23589;BME280;11972;48.078;11.876;2023-08-06T20:43:13;91985.22;;;11.57;100.00
23589;BME280;11972;48.078;11.876;2023-08-06T20:47:13;92002.09;;;11.61;100.00
23589;BME280;11972;48.078;11.876;2023-08-06T20:51:14;92039.03;;;11.71;100.00